Terminal Aerodrome Forecast
Issued by NWS Brownsville, TX

Home | Current Version | Previous Version | Text Only | Print | Product List | Glossary On
Versions: 1 2 3 4 5 6 7 8 9 10 11 12 13 14 15 16 17 18 19 20 21 22 23 24
640
FTUS44 KBRO 291257 AAA
TAFMFE
TAF AMD
KMFE 291257Z 2913/3012 13015KT 4SM BR SCT010 BKN015 WS020/16050KT
     FM291500 16020G25KT 6SM HZ BKN040
     FM300200 14013G18KT 6SM HZ BKN025
     FM300500 13008KT 6SM BR BKN010=

USA.gov is the U.S. government's official web portal to all federal, state and local government web resources and services.